createdAt,value
2023-01-29T00:00:30.044Z,6.75
2023-01-29T00:01:42.862Z,6.95
2023-01-29T00:02:54.816Z,3.60
2023-01-29T00:04:06.520Z,5.90
2023-01-29T00:05:27.481Z,6.53
2023-01-29T00:06:42.131Z,8.82
2023-01-29T00:07:53.619Z,6.30
2023-01-29T00:09:05.035Z,7.95
2023-01-29T00:10:16.934Z,9.73
2023-01-29T00:11:28.672Z,5.13
2023-01-29T00:12:40.170Z,8.23
2023-01-29T00:13:52.010Z,8.85
2023-01-29T00:15:03.594Z,6.15
2023-01-29T00:16:15.454Z,5.78
2023-01-29T00:17:27.258Z,6.45
2023-01-29T00:18:39.425Z,8.55
2023-01-29T00:19:50.903Z,9.25
2023-01-29T00:21:02.348Z,6.90
2023-01-29T00:22:13.830Z,7.90
2023-01-29T00:23:25.342Z,8.18
2023-01-29T00:24:36.826Z,9.48
2023-01-29T00:25:50.776Z,5.95
2023-01-29T00:27:02.254Z,7.07
2023-01-29T00:28:14.534Z,4.50
2023-01-29T00:29:25.989Z,5.35
2023-01-29T00:30:37.749Z,7.38
2023-01-29T00:31:49.327Z,7.78
2023-01-29T00:33:00.887Z,7.68
2023-01-29T00:34:12.374Z,7.78
2023-01-29T00:35:23.916Z,8.40
2023-01-29T00:36:35.403Z,8.88
2023-01-29T00:37:46.930Z,6.25
2023-01-29T00:38:59.498Z,4.07
2023-01-29T00:40:11.233Z,4.70
2023-01-29T00:41:41.255Z,5.70
2023-01-29T00:43:11.053Z,5.15
2023-01-29T00:44:41.233Z,8.63
2023-01-29T00:45:52.693Z,4.88
2023-01-29T00:47:04.854Z,7.82
2023-01-29T00:48:16.326Z,4.82
2023-01-29T00:49:27.854Z,4.95
2023-01-29T00:50:39.291Z,5.00
2023-01-29T00:52:09.224Z,6.85
2023-01-29T00:53:20.652Z,4.10
2023-01-29T00:54:33.186Z,3.88
2023-01-29T00:55:45.114Z,3.92
2023-01-29T00:56:56.597Z,4.85
2023-01-29T00:58:08.011Z,4.45
2023-01-29T00:59:19.430Z,4.65
2023-01-29T01:00:30.951Z,3.45
2023-01-29T01:02:01.183Z,5.25
2023-01-29T01:03:12.687Z,7.97
2023-01-29T01:04:24.108Z,5.28
2023-01-29T01:05:36.870Z,5.15
2023-01-29T01:06:48.452Z,5.90
2023-01-29T01:07:59.936Z,5.00
2023-01-29T01:09:30.003Z,5.10
2023-01-29T01:10:41.474Z,5.82
2023-01-29T01:11:52.921Z,4.30
2023-01-29T01:13:05.514Z,7.00
2023-01-29T01:14:17.064Z,3.65
2023-01-29T01:15:29.859Z,7.78
2023-01-29T01:16:41.308Z,6.95
2023-01-29T01:17:53.767Z,4.57
2023-01-29T01:19:05.315Z,5.93
2023-01-29T01:20:17.137Z,6.30
2023-01-29T01:21:29.978Z,7.10
2023-01-29T01:22:41.486Z,6.53
2023-01-29T01:23:53.720Z,6.50
2023-01-29T01:25:05.668Z,6.18
2023-01-29T01:26:17.079Z,7.80
2023-01-29T01:27:28.619Z,5.50
2023-01-29T01:28:40.087Z,7.82
2023-01-29T01:29:51.674Z,8.13
2023-01-29T01:31:13.468Z,4.90
2023-01-29T01:32:26.093Z,5.32
2023-01-29T01:33:38.009Z,6.32
2023-01-29T01:34:49.504Z,6.03
2023-01-29T01:36:04.517Z,3.63
2023-01-29T01:37:15.984Z,4.13
2023-01-29T01:38:27.474Z,4.00
2023-01-29T01:39:38.928Z,8.95
2023-01-29T01:40:50.334Z,3.90
2023-01-29T01:42:03.896Z,5.57
2023-01-29T01:43:17.567Z,8.32
2023-01-29T01:44:47.472Z,9.00
2023-01-29T01:45:58.979Z,12.55
2023-01-29T01:47:10.508Z,7.20
2023-01-29T01:48:23.018Z,6.32
2023-01-29T01:49:34.478Z,7.70
2023-01-29T01:50:58.162Z,5.05
2023-01-29T01:52:09.831Z,4.78
2023-01-29T01:53:41.615Z,6.78
2023-01-29T01:54:53.234Z,7.13
2023-01-29T01:56:18.570Z,5.00
2023-01-29T01:57:31.402Z,4.25
2023-01-29T01:58:45.479Z,5.75
2023-01-29T01:59:59.862Z,4.95
2023-01-29T02:01:14.344Z,6.35
2023-01-29T02:02:45.084Z,7.32
2023-01-29T02:04:44.624Z,7.70
2023-01-29T02:06:15.931Z,6.68
2023-01-29T02:07:45.850Z,6.53
2023-01-29T02:09:21.491Z,6.30
2023-01-29T02:10:37.768Z,3.58
2023-01-29T02:11:50.270Z,5.40
2023-01-29T02:13:01.721Z,6.47
2023-01-29T02:14:13.326Z,4.25
2023-01-29T02:15:24.805Z,6.13
2023-01-29T02:16:36.809Z,5.60
2023-01-29T02:17:48.400Z,13.10
2023-01-29T02:19:00.103Z,13.85
2023-01-29T02:20:28.553Z,19.52
2023-01-29T02:21:45.962Z,9.23
2023-01-29T02:23:12.629Z,7.72
2023-01-29T02:24:36.199Z,7.68
2023-01-29T02:25:56.672Z,9.07
2023-01-29T02:27:10.847Z,9.13
2023-01-29T02:28:33.878Z,10.98
2023-01-29T02:29:45.349Z,8.13
2023-01-29T02:30:56.984Z,6.47
2023-01-29T02:32:11.296Z,10.05
2023-01-29T02:33:41.726Z,6.72
2023-01-29T02:35:29.985Z,7.30
2023-01-29T02:37:01.750Z,6.93
2023-01-29T02:38:19.460Z,5.05
2023-01-29T02:39:49.275Z,5.10
2023-01-29T02:41:20.478Z,5.80
2023-01-29T02:42:36.002Z,4.18
2023-01-29T02:43:48.383Z,4.80
2023-01-29T02:45:03.811Z,7.88
2023-01-29T02:46:26.178Z,3.28
2023-01-29T02:47:47.226Z,5.93
2023-01-29T02:49:01.985Z,3.97
2023-01-29T02:50:20.767Z,7.82
2023-01-29T02:51:37.938Z,5.03
2023-01-29T02:53:05.175Z,6.65
2023-01-29T02:54:34.755Z,2.28
2023-01-29T02:55:48.625Z,6.82
2023-01-29T02:57:08.137Z,3.70
2023-01-29T02:58:58.165Z,4.78
2023-01-29T03:00:12.656Z,5.70
2023-01-29T03:01:32.074Z,10.07
2023-01-29T03:02:46.865Z,8.82
2023-01-29T03:04:01.417Z,13.23
2023-01-29T03:05:17.656Z,6.47
2023-01-29T03:06:53.238Z,4.07
2023-01-29T03:08:09.219Z,3.90
2023-01-29T03:09:24.587Z,5.95
2023-01-29T03:10:38.610Z,6.13
2023-01-29T03:11:52.852Z,6.85
2023-01-29T03:13:09.973Z,5.88
2023-01-29T03:14:24.479Z,8.57
2023-01-29T03:15:42.525Z,7.55
2023-01-29T03:16:54.465Z,8.38
2023-01-29T03:18:14.246Z,4.88
2023-01-29T03:19:40.283Z,8.52
2023-01-29T03:20:53.779Z,6.63
2023-01-29T03:22:05.838Z,12.85
2023-01-29T03:23:47.458Z,9.32
2023-01-29T03:25:18.447Z,10.23
2023-01-29T03:26:48.465Z,9.27
2023-01-29T03:28:19.874Z,6.25
2023-01-29T03:29:50.737Z,12.15
2023-01-29T03:31:25.221Z,6.43
2023-01-29T03:32:38.850Z,8.13
2023-01-29T03:34:16.402Z,4.80
2023-01-29T03:35:36.549Z,7.72
2023-01-29T03:37:14.364Z,4.45
2023-01-29T03:38:29.607Z,6.20
2023-01-29T03:39:42.579Z,10.55
2023-01-29T03:40:57.980Z,9.57
2023-01-29T03:42:30.259Z,4.22
2023-01-29T03:43:55.076Z,7.95
2023-01-29T03:45:08.565Z,8.23
2023-01-29T03:46:35.858Z,5.95
2023-01-29T03:47:50.093Z,9.07
2023-01-29T03:49:01.475Z,8.02
2023-01-29T03:50:12.866Z,6.18
2023-01-29T03:51:47.298Z,5.78
2023-01-29T03:53:04.563Z,11.57
2023-01-29T03:54:19.849Z,8.95
2023-01-29T03:55:35.448Z,7.32
2023-01-29T03:56:49.880Z,5.50
2023-01-29T03:58:05.708Z,8.30
2023-01-29T03:59:17.136Z,6.88
2023-01-29T04:00:30.623Z,5.50
2023-01-29T04:01:42.047Z,7.05
2023-01-29T04:02:53.598Z,8.93
2023-01-29T04:04:11.316Z,6.97
2023-01-29T04:05:25.551Z,6.38
2023-01-29T04:06:37.975Z,6.28
2023-01-29T04:07:52.383Z,6.95
2023-01-29T04:09:06.387Z,8.68
2023-01-29T04:10:19.479Z,5.63
2023-01-29T04:11:31.257Z,3.58
2023-01-29T04:13:00.191Z,6.57
2023-01-29T04:14:12.216Z,6.15
2023-01-29T04:15:25.496Z,6.93
2023-01-29T04:16:38.576Z,4.45
2023-01-29T04:17:51.736Z,5.70
2023-01-29T04:19:03.234Z,6.13
2023-01-29T04:20:15.030Z,11.98
2023-01-29T04:21:27.299Z,4.70
2023-01-29T04:22:40.199Z,7.63
2023-01-29T04:23:51.642Z,5.07
2023-01-29T04:25:08.445Z,6.53
2023-01-29T04:26:38.025Z,6.45
2023-01-29T04:28:01.934Z,6.93
2023-01-29T04:29:19.082Z,5.47
2023-01-29T04:30:30.540Z,5.60
2023-01-29T04:31:50.225Z,6.18
2023-01-29T04:33:20.158Z,4.78
2023-01-29T04:34:52.397Z,6.57
2023-01-29T04:36:07.176Z,5.78
2023-01-29T04:37:27.052Z,7.82
2023-01-29T04:38:41.399Z,9.65
2023-01-29T04:39:56.542Z,9.10
2023-01-29T04:41:20.502Z,8.60
2023-01-29T04:42:44.733Z,22.98
2023-01-29T04:44:22.636Z,12.70
2023-01-29T04:45:45.999Z,16.20
2023-01-29T04:46:57.386Z,35.30
2023-01-29T04:48:09.207Z,15.70
2023-01-29T04:49:26.893Z,5.60
2023-01-29T04:50:40.398Z,6.28
2023-01-29T04:51:59.305Z,11.52
2023-01-29T04:53:37.182Z,20.95
2023-01-29T04:55:18.146Z,34.15
2023-01-29T04:56:35.074Z,30.33
2023-01-29T04:57:52.444Z,150.25
2023-01-29T04:59:09.484Z,112.80
2023-01-29T05:00:27.273Z,50.42
2023-01-29T05:01:38.991Z,38.60
2023-01-29T05:02:51.246Z,45.33
2023-01-29T05:04:04.697Z,14.10
2023-01-29T05:05:19.799Z,10.80
2023-01-29T05:06:32.259Z,9.57
2023-01-29T05:07:44.056Z,12.70
2023-01-29T05:08:56.853Z,15.20
2023-01-29T05:10:16.317Z,17.08
2023-01-29T05:11:30.067Z,8.40
2023-01-29T05:12:43.653Z,6.78
2023-01-29T05:13:55.848Z,8.20
2023-01-29T05:15:10.764Z,37.88
2023-01-29T05:16:31.611Z,37.05
2023-01-29T05:17:43.150Z,35.13
2023-01-29T05:18:54.751Z,29.15
2023-01-29T05:20:07.624Z,25.35
2023-01-29T05:21:19.485Z,15.45
2023-01-29T05:22:31.044Z,11.27
2023-01-29T05:23:53.268Z,10.48
2023-01-29T05:25:07.289Z,12.40
2023-01-29T05:26:38.986Z,5.53
2023-01-29T05:28:09.888Z,15.90
2023-01-29T05:29:21.670Z,15.45
2023-01-29T05:30:34.236Z,13.85
2023-01-29T05:31:46.016Z,16.52
2023-01-29T05:32:57.529Z,11.25
2023-01-29T05:34:08.981Z,15.82
2023-01-29T05:35:20.428Z,14.25
2023-01-29T05:36:31.895Z,29.88
2023-01-29T05:37:43.873Z,28.58
2023-01-29T05:38:55.265Z,35.10
2023-01-29T05:40:08.868Z,61.55
2023-01-29T05:41:21.152Z,67.97
2023-01-29T05:42:32.779Z,55.33
2023-01-29T05:43:44.197Z,39.58
2023-01-29T05:44:55.638Z,35.42
2023-01-29T05:46:07.538Z,36.83
2023-01-29T05:47:19.866Z,43.00
2023-01-29T05:48:32.426Z,34.90
2023-01-29T05:49:43.871Z,34.95
2023-01-29T05:50:59.970Z,27.58
2023-01-29T05:52:11.363Z,32.60
2023-01-29T05:53:22.778Z,49.58
2023-01-29T05:54:34.168Z,19.13
2023-01-29T05:55:47.215Z,15.10
2023-01-29T05:57:00.859Z,15.27
2023-01-29T05:58:12.656Z,17.13
2023-01-29T05:59:24.129Z,15.30
2023-01-29T06:00:35.537Z,16.45
2023-01-29T06:01:46.967Z,22.65
2023-01-29T06:02:58.753Z,29.77
2023-01-29T06:04:10.609Z,25.85
2023-01-29T06:05:22.232Z,15.18
2023-01-29T06:06:33.779Z,26.38
2023-01-29T06:07:45.487Z,28.80
2023-01-29T06:08:57.070Z,25.17
2023-01-29T06:10:09.096Z,35.50
2023-01-29T06:11:20.722Z,35.90
2023-01-29T06:12:32.261Z,10.75
2023-01-29T06:13:43.994Z,11.55
2023-01-29T06:14:55.522Z,14.18
2023-01-29T06:16:07.800Z,9.68
2023-01-29T06:17:19.257Z,13.98
2023-01-29T06:18:30.730Z,7.20
2023-01-29T06:19:42.255Z,13.25
2023-01-29T06:20:53.734Z,19.73
2023-01-29T06:22:05.200Z,20.15
2023-01-29T06:23:16.704Z,20.80
2023-01-29T06:24:28.224Z,255.75
2023-01-29T06:25:39.840Z,1999.90
2023-01-29T06:26:51.298Z,1999.90
2023-01-29T06:28:02.884Z,1999.90
2023-01-29T06:29:14.433Z,1999.90
2023-01-29T06:30:27.776Z,126.10
2023-01-29T06:31:39.916Z,38.95
2023-01-29T06:32:56.399Z,39.58
2023-01-29T06:34:08.121Z,23.80
2023-01-29T06:35:19.560Z,35.25
2023-01-29T06:36:31.017Z,52.95
2023-01-29T06:37:42.597Z,112.65
2023-01-29T06:38:54.119Z,73.65
2023-01-29T06:40:05.865Z,73.07
2023-01-29T06:41:18.937Z,56.10
2023-01-29T06:42:30.420Z,61.70
2023-01-29T06:43:43.889Z,69.30
2023-01-29T06:44:58.101Z,63.20
2023-01-29T06:46:09.725Z,86.38
2023-01-29T06:47:21.143Z,60.97
2023-01-29T06:48:34.667Z,80.78
2023-01-29T06:49:46.075Z,71.93
2023-01-29T06:51:01.401Z,65.55
2023-01-29T06:52:12.943Z,54.67
2023-01-29T06:53:25.015Z,64.50
2023-01-29T06:54:36.489Z,73.07
2023-01-29T06:55:54.043Z,53.28
2023-01-29T06:57:05.485Z,38.20
2023-01-29T06:58:17.013Z,67.65
2023-01-29T06:59:28.483Z,31.48
2023-01-29T07:00:40.610Z,18.38
2023-01-29T07:01:52.137Z,35.30
2023-01-29T07:03:04.194Z,28.98
2023-01-29T07:04:15.614Z,45.47
2023-01-29T07:05:27.101Z,30.52
2023-01-29T07:06:38.574Z,21.95
2023-01-29T07:07:52.294Z,20.83
2023-01-29T07:09:04.179Z,33.28
2023-01-29T07:10:16.003Z,27.30
2023-01-29T07:11:27.631Z,36.88
2023-01-29T07:12:39.057Z,36.17
2023-01-29T07:13:50.518Z,31.95
2023-01-29T07:15:01.999Z,33.22
2023-01-29T07:16:13.563Z,41.97
2023-01-29T07:17:25.044Z,41.33
2023-01-29T07:18:37.225Z,81.65
2023-01-29T07:19:48.724Z,34.75
2023-01-29T07:21:03.805Z,38.88
2023-01-29T07:22:16.358Z,38.42
2023-01-29T07:23:27.894Z,34.78
2023-01-29T07:24:39.556Z,30.40
2023-01-29T07:25:51.311Z,35.70
2023-01-29T07:27:02.851Z,53.08
2023-01-29T07:28:14.302Z,43.75
2023-01-29T07:29:25.877Z,38.55
2023-01-29T07:30:37.612Z,31.58
2023-01-29T07:31:49.138Z,30.77
2023-01-29T07:33:08.161Z,26.00
2023-01-29T07:34:19.899Z,18.80
2023-01-29T07:35:32.072Z,19.52
2023-01-29T07:36:43.581Z,26.40
2023-01-29T07:37:55.071Z,22.42
2023-01-29T07:39:06.545Z,20.88
2023-01-29T07:40:18.587Z,22.30
2023-01-29T07:41:30.222Z,30.23
2023-01-29T07:42:44.389Z,27.90
2023-01-29T07:43:55.866Z,22.88
2023-01-29T07:45:07.653Z,18.08
2023-01-29T07:46:19.074Z,17.40
2023-01-29T07:47:30.625Z,13.15
2023-01-29T07:48:42.105Z,17.52
2023-01-29T07:49:53.637Z,17.73
2023-01-29T07:51:05.247Z,19.05
2023-01-29T07:52:16.834Z,14.70
2023-01-29T07:53:28.852Z,17.70
2023-01-29T07:54:40.386Z,20.95
2023-01-29T07:55:51.945Z,22.77
2023-01-29T07:57:03.408Z,22.20
2023-01-29T07:58:15.195Z,14.85
2023-01-29T07:59:26.772Z,18.58
2023-01-29T08:00:39.917Z,16.58
2023-01-29T08:01:51.725Z,19.88
2023-01-29T08:03:07.085Z,14.68
2023-01-29T08:04:20.710Z,17.70
2023-01-29T08:05:32.290Z,16.95
2023-01-29T08:06:43.817Z,24.70
2023-01-29T08:08:06.119Z,10.95
2023-01-29T08:09:18.295Z,16.55
2023-01-29T08:10:29.881Z,21.10
2023-01-29T08:11:41.553Z,21.92
2023-01-29T08:12:57.001Z,17.00
2023-01-29T08:14:09.578Z,15.55
2023-01-29T08:15:21.072Z,16.65
2023-01-29T08:16:32.668Z,17.98
2023-01-29T08:17:57.203Z,19.50
2023-01-29T08:19:09.315Z,21.73
2023-01-29T08:20:21.359Z,20.60
2023-01-29T08:21:32.908Z,20.02
2023-01-29T08:22:47.203Z,18.15
2023-01-29T08:23:58.850Z,15.60
2023-01-29T08:25:10.673Z,10.52
2023-01-29T08:26:22.383Z,12.32
2023-01-29T08:27:34.362Z,10.15
2023-01-29T08:28:45.868Z,7.05
2023-01-29T08:29:57.553Z,6.05
2023-01-29T08:31:15.866Z,7.53
2023-01-29T08:32:27.302Z,8.43
2023-01-29T08:33:39.540Z,11.55
2023-01-29T08:34:53.584Z,7.32
2023-01-29T08:36:05.165Z,13.88
2023-01-29T08:37:16.617Z,19.70
2023-01-29T08:38:30.671Z,44.85
2023-01-29T08:40:58.469Z,8.02
2023-01-29T08:42:11.614Z,11.65
2023-01-29T08:43:23.138Z,7.88
2023-01-29T08:44:34.732Z,9.55
2023-01-29T08:45:48.973Z,8.40
2023-01-29T08:47:00.683Z,7.80
2023-01-29T08:48:12.379Z,9.13
2023-01-29T08:49:24.063Z,7.82
2023-01-29T08:50:35.864Z,7.63
2023-01-29T08:51:47.486Z,10.35
2023-01-29T08:52:59.512Z,6.40
2023-01-29T08:54:11.009Z,7.88
2023-01-29T08:55:22.535Z,18.63
2023-01-29T08:56:34.133Z,122.25
2023-01-29T08:57:45.595Z,23.48
2023-01-29T08:58:58.361Z,11.88
2023-01-29T09:00:10.921Z,18.70
2023-01-29T09:01:22.442Z,15.68
2023-01-29T09:02:33.925Z,12.07
2023-01-29T09:03:48.007Z,10.80
2023-01-29T09:04:59.456Z,12.95
2023-01-29T09:06:14.034Z,8.77
2023-01-29T09:07:28.634Z,9.27
2023-01-29T09:08:40.440Z,9.38
2023-01-29T09:09:51.962Z,9.65
2023-01-29T09:11:03.470Z,9.63
2023-01-29T09:12:15.002Z,12.52
2023-01-29T09:13:26.464Z,11.85
2023-01-29T09:14:37.926Z,10.15
2023-01-29T09:15:52.490Z,9.30
2023-01-29T09:17:03.973Z,10.65
2023-01-29T09:18:15.416Z,12.38
2023-01-29T09:19:26.944Z,9.77
2023-01-29T09:20:39.060Z,7.78
2023-01-29T09:21:50.678Z,8.95
2023-01-29T09:23:08.797Z,6.85
2023-01-29T09:24:20.269Z,11.52
2023-01-29T09:25:31.756Z,8.93
2023-01-29T09:26:43.253Z,8.75
2023-01-29T09:27:54.741Z,10.52
2023-01-29T09:29:06.475Z,9.35
2023-01-29T09:30:18.764Z,14.60
2023-01-29T09:31:30.439Z,13.65
2023-01-29T09:32:59.002Z,7.97
2023-01-29T09:34:10.581Z,10.55
2023-01-29T09:35:22.862Z,7.70
2023-01-29T09:36:34.331Z,7.70
2023-01-29T09:37:49.349Z,10.93
2023-01-29T09:39:00.860Z,9.45
2023-01-29T09:40:19.819Z,11.98
2023-01-29T09:41:35.481Z,8.85
2023-01-29T09:42:50.644Z,9.40
2023-01-29T09:44:03.601Z,7.72
2023-01-29T09:45:24.714Z,8.38
2023-01-29T09:46:40.961Z,8.43
2023-01-29T09:47:53.785Z,14.50
2023-01-29T09:49:15.254Z,10.18
2023-01-29T09:50:30.401Z,8.77
2023-01-29T09:51:43.162Z,12.65
2023-01-29T09:52:57.236Z,13.20
2023-01-29T09:54:37.768Z,9.20
2023-01-29T09:55:51.444Z,7.72
2023-01-29T09:57:02.931Z,20.92
2023-01-29T09:58:19.005Z,16.80
2023-01-29T09:59:31.735Z,13.18
2023-01-29T10:01:02.130Z,9.13
2023-01-29T10:02:32.101Z,15.80
2023-01-29T10:03:49.398Z,8.65
2023-01-29T10:05:07.395Z,5.25
2023-01-29T10:06:28.191Z,4.63
2023-01-29T10:07:42.770Z,7.68
2023-01-29T10:09:14.024Z,6.75
2023-01-29T10:10:35.090Z,6.18
2023-01-29T10:11:49.629Z,9.48
2023-01-29T10:13:06.821Z,5.43
2023-01-29T10:14:22.864Z,7.25
2023-01-29T10:15:53.231Z,8.95
2023-01-29T10:17:04.728Z,10.88
2023-01-29T10:18:29.705Z,11.35
2023-01-29T10:19:41.113Z,8.50
2023-01-29T10:21:11.404Z,7.22
2023-01-29T10:22:23.384Z,6.68
2023-01-29T10:23:38.068Z,9.13
2023-01-29T10:24:53.189Z,8.18
2023-01-29T10:26:04.838Z,11.07
2023-01-29T10:27:17.800Z,5.43
2023-01-29T10:28:36.343Z,6.70
2023-01-29T10:29:50.892Z,6.15
2023-01-29T10:31:10.034Z,6.10
2023-01-29T10:32:22.953Z,12.43
2023-01-29T10:33:49.604Z,6.93
2023-01-29T10:35:23.268Z,9.40
2023-01-29T10:36:37.559Z,7.57
2023-01-29T10:37:52.238Z,10.73
2023-01-29T10:39:03.827Z,11.73
2023-01-29T10:40:29.523Z,8.07
2023-01-29T10:41:40.955Z,8.50
2023-01-29T10:43:00.873Z,9.18
2023-01-29T10:44:12.390Z,6.20
2023-01-29T10:45:49.932Z,5.95
2023-01-29T10:47:12.650Z,9.55
2023-01-29T10:48:59.518Z,6.63
2023-01-29T10:50:40.432Z,8.27
2023-01-29T10:52:09.978Z,6.82
2023-01-29T10:53:21.521Z,12.90
2023-01-29T10:54:55.990Z,12.73
2023-01-29T10:56:20.897Z,20.17
2023-01-29T10:57:37.096Z,14.00
2023-01-29T10:58:48.580Z,9.20
2023-01-29T11:00:06.403Z,10.57
2023-01-29T11:01:17.900Z,12.32
2023-01-29T11:02:29.473Z,9.88
2023-01-29T11:03:41.031Z,6.88
2023-01-29T11:04:52.623Z,8.43
2023-01-29T11:06:17.788Z,10.55
2023-01-29T11:07:31.646Z,7.82
2023-01-29T11:08:45.962Z,9.32
2023-01-29T11:09:57.539Z,8.10
2023-01-29T11:11:12.403Z,8.45
2023-01-29T11:12:29.237Z,6.65
2023-01-29T11:13:47.425Z,9.25
2023-01-29T11:15:02.052Z,7.22
2023-01-29T11:16:13.769Z,8.00
2023-01-29T11:17:26.801Z,7.88
2023-01-29T11:18:56.905Z,10.65
2023-01-29T11:20:25.570Z,7.63
2023-01-29T11:21:55.789Z,6.28
2023-01-29T11:23:23.307Z,6.85
2023-01-29T11:24:34.793Z,7.15
2023-01-29T11:25:52.348Z,13.38
2023-01-29T11:27:13.514Z,9.65
2023-01-29T11:28:51.330Z,9.23
2023-01-29T11:30:02.983Z,6.15
2023-01-29T11:31:27.424Z,7.25
2023-01-29T11:32:39.034Z,8.05
2023-01-29T11:33:52.210Z,7.70
2023-01-29T11:35:03.762Z,10.50
2023-01-29T11:36:33.537Z,11.63
2023-01-29T11:37:45.718Z,10.25
2023-01-29T11:39:09.436Z,7.93
2023-01-29T11:40:27.859Z,25.98
2023-01-29T11:41:43.604Z,12.07
2023-01-29T11:42:55.069Z,21.60
2023-01-29T11:44:18.263Z,17.33
2023-01-29T11:45:32.524Z,12.60
2023-01-29T11:46:44.041Z,13.55
2023-01-29T11:47:56.708Z,10.38
2023-01-29T11:49:20.916Z,5.95
2023-01-29T11:50:34.914Z,7.22
2023-01-29T11:51:51.031Z,8.70
2023-01-29T11:53:03.703Z,8.23
2023-01-29T11:54:17.072Z,9.40
2023-01-29T11:55:41.030Z,12.20
2023-01-29T11:57:01.906Z,9.27
2023-01-29T11:58:17.032Z,6.65
2023-01-29T11:59:44.226Z,9.80
2023-01-29T12:00:58.383Z,11.10
2023-01-29T12:02:22.536Z,11.38
2023-01-29T12:03:36.137Z,12.70
2023-01-29T12:04:48.238Z,24.95
2023-01-29T12:06:04.060Z,12.30
2023-01-29T12:07:16.650Z,13.45
2023-01-29T12:08:31.175Z,10.32
2023-01-29T12:09:49.898Z,12.88
2023-01-29T12:11:27.527Z,12.20
2023-01-29T12:12:42.430Z,10.82
2023-01-29T12:13:57.432Z,10.20
2023-01-29T12:15:08.937Z,10.73
2023-01-29T12:16:38.456Z,8.55
2023-01-29T12:18:09.541Z,13.50
2023-01-29T12:19:20.977Z,10.60
2023-01-29T12:20:38.463Z,8.73
2023-01-29T12:21:53.386Z,11.52
2023-01-29T12:23:11.013Z,7.75
2023-01-29T12:24:37.597Z,7.00
2023-01-29T12:26:08.258Z,7.80
2023-01-29T12:27:22.711Z,9.15
2023-01-29T12:28:43.066Z,17.15
2023-01-29T12:30:03.672Z,6.07
2023-01-29T12:31:27.812Z,9.73
2023-01-29T12:32:49.849Z,9.52
2023-01-29T12:34:19.813Z,6.18
2023-01-29T12:35:34.649Z,6.97
2023-01-29T12:36:53.393Z,8.32
2023-01-29T12:38:14.087Z,9.55
2023-01-29T12:39:25.677Z,7.13
2023-01-29T12:41:03.235Z,8.10
2023-01-29T12:42:23.387Z,6.93
2023-01-29T12:43:37.856Z,5.85
2023-01-29T12:44:49.279Z,10.88
2023-01-29T12:46:01.608Z,4.93
2023-01-29T12:47:21.079Z,6.03
2023-01-29T12:48:38.314Z,4.95
2023-01-29T12:49:55.766Z,7.03
2023-01-29T12:51:14.441Z,4.60
2023-01-29T12:52:29.258Z,6.40
2023-01-29T12:53:43.755Z,6.28
2023-01-29T12:54:58.035Z,7.40
2023-01-29T12:56:15.159Z,6.20
2023-01-29T12:57:34.894Z,4.32
2023-01-29T12:58:53.434Z,6.00
2023-01-29T13:00:16.899Z,5.25
2023-01-29T13:01:31.282Z,7.28
2023-01-29T13:02:48.923Z,5.25
2023-01-29T13:04:19.309Z,6.97
2023-01-29T13:05:39.415Z,8.32
2023-01-29T13:06:54.343Z,6.13
2023-01-29T13:08:10.181Z,6.28
2023-01-29T13:09:24.712Z,5.55
2023-01-29T13:10:43.098Z,5.35
2023-01-29T13:11:57.440Z,4.72
2023-01-29T13:13:20.975Z,5.63
2023-01-29T13:14:53.027Z,6.45
2023-01-29T13:16:06.876Z,5.80
2023-01-29T13:17:21.757Z,3.85
2023-01-29T13:18:37.818Z,4.50
2023-01-29T13:19:51.300Z,6.93
2023-01-29T13:21:03.663Z,4.05
2023-01-29T13:22:36.148Z,4.25
2023-01-29T13:23:51.962Z,3.10
2023-01-29T13:25:05.797Z,4.45
2023-01-29T13:26:18.226Z,3.78
2023-01-29T13:27:31.524Z,4.38
2023-01-29T13:28:44.652Z,11.27
2023-01-29T13:29:56.751Z,6.30
2023-01-29T13:31:26.975Z,4.80
2023-01-29T13:32:38.515Z,5.72
2023-01-29T13:33:55.305Z,5.65
2023-01-29T13:35:14.024Z,5.80
2023-01-29T13:36:31.826Z,4.90
2023-01-29T13:37:48.236Z,3.60
2023-01-29T13:39:05.841Z,6.05
2023-01-29T13:40:36.369Z,4.72
2023-01-29T13:41:48.191Z,4.72
2023-01-29T13:43:00.608Z,4.47
2023-01-29T13:44:21.047Z,3.72
2023-01-29T13:45:36.812Z,5.82
2023-01-29T13:46:50.134Z,10.13
2023-01-29T13:48:19.382Z,6.95
2023-01-29T13:49:45.719Z,4.13
2023-01-29T13:51:00.777Z,5.13
2023-01-29T13:52:31.832Z,5.10
2023-01-29T13:53:44.270Z,5.32
2023-01-29T13:54:57.820Z,6.18
2023-01-29T13:56:28.117Z,5.13
2023-01-29T13:57:39.565Z,6.70
2023-01-29T13:58:54.625Z,5.13
2023-01-29T14:00:06.485Z,4.45
2023-01-29T14:01:38.021Z,7.38
2023-01-29T14:02:56.216Z,9.82
2023-01-29T14:04:22.920Z,8.45
2023-01-29T14:05:53.026Z,8.23
2023-01-29T14:07:28.259Z,9.23
2023-01-29T14:08:42.636Z,10.13
2023-01-29T14:10:14.421Z,8.32
2023-01-29T14:11:34.413Z,7.13
2023-01-29T14:12:46.181Z,7.47
2023-01-29T14:13:57.721Z,5.32
2023-01-29T14:15:18.936Z,10.00
2023-01-29T14:16:36.400Z,14.95
2023-01-29T14:18:02.947Z,12.88
2023-01-29T14:19:19.550Z,9.75
2023-01-29T14:20:45.189Z,11.07
2023-01-29T14:21:58.485Z,12.98
2023-01-29T14:23:21.504Z,12.55
2023-01-29T14:24:33.838Z,7.88
2023-01-29T14:25:45.986Z,10.32
2023-01-29T14:26:57.809Z,9.25
2023-01-29T14:28:15.100Z,15.15
2023-01-29T14:29:34.795Z,29.98
2023-01-29T14:30:48.230Z,22.10
2023-01-29T14:32:19.744Z,13.40
2023-01-29T14:33:34.957Z,9.13
2023-01-29T14:35:13.018Z,9.90
2023-01-29T14:36:26.862Z,11.63
2023-01-29T14:37:40.141Z,12.57
2023-01-29T14:38:53.860Z,11.18
2023-01-29T14:40:11.469Z,10.90
2023-01-29T14:41:23.370Z,9.27
2023-01-29T14:42:37.741Z,11.50
2023-01-29T14:43:49.392Z,10.52
2023-01-29T14:45:08.427Z,10.10
2023-01-29T14:46:38.884Z,11.25
2023-01-29T14:47:50.536Z,10.27
2023-01-29T14:49:02.763Z,12.43
2023-01-29T14:50:29.441Z,10.75
2023-01-29T14:51:44.292Z,9.65
2023-01-29T14:53:05.098Z,8.40
2023-01-29T14:54:20.995Z,8.43
2023-01-29T14:55:38.237Z,10.80
2023-01-29T14:56:49.811Z,12.13
2023-01-29T14:58:02.788Z,9.60
2023-01-29T14:59:18.300Z,7.43
2023-01-29T15:00:40.899Z,9.57
2023-01-29T15:01:54.568Z,7.43
2023-01-29T15:03:13.537Z,9.48
2023-01-29T15:04:25.675Z,15.30
2023-01-29T15:05:37.958Z,16.58
2023-01-29T15:06:53.062Z,17.92
2023-01-29T15:08:17.040Z,21.60
2023-01-29T15:09:37.808Z,22.35
2023-01-29T15:11:14.530Z,12.13
2023-01-29T15:12:34.221Z,12.75
2023-01-29T15:13:49.756Z,7.43
2023-01-29T15:15:01.317Z,6.88
2023-01-29T15:16:21.166Z,6.93
2023-01-29T15:17:51.289Z,5.63
2023-01-29T15:19:14.328Z,5.25
2023-01-29T15:20:36.106Z,6.00
2023-01-29T15:22:04.335Z,12.40
2023-01-29T15:23:32.325Z,10.73
2023-01-29T15:24:45.512Z,8.82
2023-01-29T15:25:59.539Z,10.43
2023-01-29T15:27:18.722Z,12.45
2023-01-29T15:28:31.992Z,11.65
2023-01-29T15:29:45.696Z,10.38
2023-01-29T15:30:59.730Z,10.52
2023-01-29T15:32:15.157Z,10.00
2023-01-29T15:33:27.912Z,11.43
2023-01-29T15:34:43.802Z,9.40
2023-01-29T15:36:06.809Z,11.93
2023-01-29T15:37:26.531Z,9.18
2023-01-29T15:38:38.636Z,10.25
2023-01-29T15:39:52.212Z,13.25
2023-01-29T15:41:16.541Z,11.75
2023-01-29T15:42:29.762Z,12.27
2023-01-29T15:43:45.811Z,13.70
2023-01-29T15:44:58.786Z,11.90
2023-01-29T15:46:25.590Z,17.60
2023-01-29T15:47:37.838Z,18.20
2023-01-29T15:48:50.469Z,15.02
2023-01-29T15:50:02.244Z,11.05
2023-01-29T15:51:16.261Z,11.43
2023-01-29T15:52:29.464Z,11.45
2023-01-29T15:53:58.669Z,11.10
2023-01-29T15:55:12.763Z,11.13
2023-01-29T15:56:47.548Z,25.83
2023-01-29T15:57:59.782Z,14.32
2023-01-29T15:59:22.749Z,9.30
2023-01-29T16:00:34.997Z,10.73
2023-01-29T16:01:46.878Z,15.48
2023-01-29T16:03:01.277Z,15.10
2023-01-29T16:04:15.677Z,10.30
2023-01-29T16:05:33.030Z,19.45
2023-01-29T16:06:45.440Z,22.08
2023-01-29T16:07:57.662Z,35.13
2023-01-29T16:09:14.379Z,38.40
2023-01-29T16:10:30.131Z,71.55
2023-01-29T16:11:41.601Z,41.95
2023-01-29T16:12:53.221Z,24.23
2023-01-29T16:14:07.173Z,18.58
2023-01-29T16:15:32.838Z,17.15
2023-01-29T16:16:45.302Z,12.50
2023-01-29T16:17:57.229Z,10.60
2023-01-29T16:19:25.939Z,13.10
2023-01-29T16:20:43.266Z,9.95
2023-01-29T16:21:59.875Z,11.35
2023-01-29T16:23:19.057Z,15.52
2023-01-29T16:24:31.437Z,11.77
2023-01-29T16:25:42.934Z,10.32
2023-01-29T16:27:02.915Z,8.95
2023-01-29T16:28:14.842Z,15.48
2023-01-29T16:29:33.540Z,14.73
2023-01-29T16:30:45.623Z,15.50
2023-01-29T16:32:02.085Z,19.55
2023-01-29T16:33:17.597Z,21.48
2023-01-29T16:34:30.515Z,19.95
2023-01-29T16:35:42.192Z,16.05
2023-01-29T16:36:54.806Z,14.35
2023-01-29T16:38:08.477Z,17.13
2023-01-29T16:39:23.170Z,13.25
2023-01-29T16:40:37.815Z,19.48
2023-01-29T16:42:03.474Z,15.50